Time;durP1;ratioP1;P1;durP2;ratioP2;P2;SDS_P1;SDS_P2;PMS_P1;PMS_P2;Temp;Humidity;BMP_temperature;BMP_pressure;BME280_temperature;BME280_humidity;BME280_pressure;Samples;Min_cycle;Max_cycle;Signal;HPM_P1;HPM_P2
2023/12/03 00:01:24;;;;;;;0.30;0.30;;;;;;;-4.21;100.00;96668.66;5028739;28;20040;-77
2023/12/03 00:04:09;;;;;;;0.20;0.20;;;;;;;-4.16;100.00;96667.41;5046618;28;20504;-77
2023/12/03 00:06:55;;;;;;;0.20;0.20;;;;;;;-4.19;100.00;96659.88;5051132;28;20469;-77
2023/12/03 00:09:42;;;;;;;0.20;0.20;;;;;;;-4.07;100.00;96671.72;5048259;28;20037;-77
2023/12/03 00:12:29;;;;;;;0.20;0.20;;;;;;;-4.06;100.00;96673.34;5050274;28;20033;-77
2023/12/03 00:15:16;;;;;;;0.20;0.20;;;;;;;-4.05;100.00;96678.44;5028690;28;20032;-77
2023/12/03 00:18:02;;;;;;;0.30;0.30;;;;;;;-4.09;100.00;96674.50;5046998;28;20086;-77
2023/12/03 00:20:48;;;;;;;0.30;0.30;;;;;;;-4.06;100.00;96675.97;5050378;28;20806;-77
2023/12/03 00:23:34;;;;;;;0.20;0.20;;;;;;;-4.07;100.00;96661.25;5048133;28;20040;-76
2023/12/03 00:26:19;;;;;;;0.20;0.20;;;;;;;-4.16;100.00;96664.78;5037055;28;20094;-77
2023/12/03 00:29:06;;;;;;;0.20;0.20;;;;;;;-4.16;100.00;96659.56;5046425;28;20086;-77
2023/12/03 00:31:52;;;;;;;0.30;0.30;;;;;;;-4.22;100.00;96659.19;5049809;28;20033;-77
2023/12/03 00:34:38;;;;;;;0.20;0.20;;;;;;;-4.25;100.00;96662.13;5048699;28;20073;-77
2023/12/03 00:37:24;;;;;;;0.20;0.20;;;;;;;-4.42;100.00;96683.03;5049523;28;20041;-77
2023/12/03 00:40:10;;;;;;;0.20;0.20;;;;;;;-4.56;100.00;96677.38;5050963;28;20098;-77
2023/12/03 00:42:56;;;;;;;0.20;0.20;;;;;;;-4.57;100.00;96683.56;5046946;28;20043;-77
2023/12/03 00:45:42;;;;;;;0.22;0.22;;;;;;;-4.58;100.00;96673.25;5048406;28;20101;-77
2023/12/03 00:48:28;;;;;;;0.30;0.30;;;;;;;-4.65;100.00;96687.88;5048957;28;20084;-77
2023/12/03 00:51:15;;;;;;;0.20;0.20;;;;;;;-4.76;100.00;96684.50;5048892;28;20040;-77
2023/12/03 00:54:00;;;;;;;0.20;0.20;;;;;;;-4.64;100.00;96689.53;5045898;28;20048;-77
2023/12/03 00:56:46;;;;;;;0.20;0.20;;;;;;;-4.71;100.00;96685.88;5048109;28;20598;-77
2023/12/03 00:59:32;;;;;;;0.20;0.20;;;;;;;-4.67;100.00;96692.41;5048072;28;20044;-77
2023/12/03 01:02:18;;;;;;;0.20;0.20;;;;;;;-4.60;100.00;96681.22;5046726;28;20505;-78
2023/12/03 01:05:04;;;;;;;0.30;0.30;;;;;;;-4.52;100.00;96686.53;5048347;28;20040;-78
2023/12/03 01:07:50;;;;;;;0.22;0.22;;;;;;;-4.46;100.00;96692.94;5047088;28;20348;-78
2023/12/03 01:10:36;;;;;;;0.30;0.30;;;;;;;-4.51;100.00;96701.25;5047189;28;20037;-77
2023/12/03 01:13:21;;;;;;;0.20;0.20;;;;;;;-4.45;100.00;96710.28;5049372;28;20076;-77
2023/12/03 01:16:17;;;;;;;0.20;0.20;;;;;;;-4.31;100.00;96709.75;5050814;28;20037;-77
2023/12/03 01:19:03;;;;;;;0.30;0.30;;;;;;;-4.38;100.00;96706.09;5048737;28;20036;-77
2023/12/03 01:21:48;;;;;;;0.20;0.20;;;;;;;-4.37;100.00;96710.34;5045206;28;20041;-78
2023/12/03 01:24:34;;;;;;;0.20;0.20;;;;;;;-4.43;100.00;96718.81;5049175;28;20090;-77
2023/12/03 01:27:20;;;;;;;0.20;0.20;;;;;;;-4.46;100.00;96716.47;5049179;28;20123;-77
2023/12/03 01:30:06;;;;;;;0.20;0.20;;;;;;;-4.23;100.00;96722.88;5046534;28;20039;-77
2023/12/03 01:32:52;;;;;;;0.20;0.20;;;;;;;-4.03;100.00;96720.13;5045024;28;20529;-78
2023/12/03 01:35:38;;;;;;;0.22;0.22;;;;;;;-4.21;100.00;96712.28;5049211;28;20193;-77
2023/12/03 01:38:24;;;;;;;0.20;0.20;;;;;;;-4.11;100.00;96730.50;5047161;28;20086;-77
2023/12/03 01:41:12;;;;;;;0.22;0.22;;;;;;;-4.08;100.00;96730.19;5048203;28;20036;-78
2023/12/03 01:43:58;;;;;;;0.20;0.20;;;;;;;-4.18;100.00;96729.47;5047644;28;20795;-77
2023/12/03 01:46:49;;;;;;;0.20;0.20;;;;;;;-4.18;100.00;96732.91;5048017;28;20037;-77
2023/12/03 01:49:35;;;;;;;0.20;0.20;;;;;;;-3.98;100.00;96733.53;5048585;28;20041;-77
2023/12/03 01:52:22;;;;;;;0.20;0.20;;;;;;;-4.17;100.00;96729.31;5047222;28;20943;-77
2023/12/03 01:55:11;;;;;;;0.20;0.20;;;;;;;-4.06;100.00;96736.91;5049161;28;20051;-77
2023/12/03 01:57:58;;;;;;;0.20;0.20;;;;;;;-4.21;100.00;96734.00;5045981;28;20090;-78
2023/12/03 02:00:44;;;;;;;0.20;0.20;;;;;;;-4.39;100.00;96730.59;5045882;28;20127;-77
2023/12/03 02:03:36;;;;;;;0.20;0.20;;;;;;;-4.44;100.00;96738.03;5046547;28;20057;-77
2023/12/03 02:06:21;;;;;;;0.20;0.20;;;;;;;-4.55;100.00;96735.66;5047602;28;20052;-78
2023/12/03 02:09:07;;;;;;;0.20;0.20;;;;;;;-4.53;100.00;96744.16;5045601;28;20540;-77
2023/12/03 02:11:53;;;;;;;0.20;0.20;;;;;;;-4.29;100.00;96741.78;5048717;28;20673;-78
2023/12/03 02:14:40;;;;;;;0.20;0.20;;;;;;;-4.13;100.00;96745.50;5034327;28;20036;-78
2023/12/03 02:17:26;;;;;;;0.20;0.20;;;;;;;-4.12;100.00;96749.78;5047033;28;20477;-77
2023/12/03 02:20:12;;;;;;;0.20;0.20;;;;;;;-4.14;100.00;96749.91;5046206;28;20037;-78
2023/12/03 02:23:01;;;;;;;0.20;0.20;;;;;;;-4.01;100.00;96754.78;5047327;28;20159;-78
2023/12/03 02:25:50;;;;;;;0.20;0.20;;;;;;;-3.98;100.00;96754.47;5031565;28;20148;-77
2023/12/03 02:28:36;;;;;;;0.30;0.30;;;;;;;-3.86;100.00;96742.00;5034515;28;20047;-77
2023/12/03 02:31:22;;;;;;;0.20;0.20;;;;;;;-3.89;100.00;96743.13;5047145;28;20049;-78
2023/12/03 02:34:10;;;;;;;0.20;0.20;;;;;;;-3.88;100.00;96754.41;5046015;28;20143;-77
2023/12/03 02:36:56;;;;;;;0.30;0.30;;;;;;;-3.86;100.00;96747.22;5044466;28;21775;-77
2023/12/03 02:39:41;;;;;;;0.20;0.20;;;;;;;-3.90;100.00;96759.75;5044236;28;20155;-77
2023/12/03 02:42:27;;;;;;;0.20;0.20;;;;;;;-3.85;100.00;96761.94;5047442;28;20045;-77
2023/12/03 02:45:13;;;;;;;0.20;0.20;;;;;;;-3.79;100.00;96759.53;5046844;28;20998;-78
2023/12/03 02:47:59;;;;;;;0.20;0.20;;;;;;;-4.05;100.00;96761.25;5043834;28;20378;-78
2023/12/03 02:50:45;;;;;;;0.20;0.20;;;;;;;-4.14;100.00;96762.97;5045881;28;20140;-77
2023/12/03 02:53:31;;;;;;;0.20;0.20;;;;;;;-4.53;100.00;96767.66;5045839;28;20071;-77
2023/12/03 02:56:17;;;;;;;0.20;0.20;;;;;;;-4.48;100.00;96762.81;5048529;28;20120;-77
2023/12/03 02:59:03;;;;;;;0.20;0.20;;;;;;;-4.73;100.00;96758.31;5045318;28;20036;-77
2023/12/03 03:01:51;;;;;;;0.20;0.20;;;;;;;-4.71;100.00;96757.19;5046302;28;20086;-77
2023/12/03 03:04:37;;;;;;;0.28;0.28;;;;;;;-4.71;100.00;96759.78;5033783;28;20045;-77
2023/12/03 03:07:23;;;;;;;0.20;0.20;;;;;;;-4.76;100.00;96768.06;5045959;28;20620;-78
2023/12/03 03:10:09;;;;;;;0.25;0.25;;;;;;;-4.62;100.00;96771.16;5048363;28;20566;-77
2023/12/03 03:12:55;;;;;;;0.20;0.20;;;;;;;-4.56;100.00;96767.97;5044143;28;20079;-77
2023/12/03 03:15:41;;;;;;;0.20;0.20;;;;;;;-4.51;100.00;96770.97;5046831;28;20537;-78
2023/12/03 03:18:27;;;;;;;0.20;0.20;;;;;;;-4.32;100.00;96768.22;5046154;28;20036;-78
2023/12/03 03:21:13;;;;;;;0.20;0.20;;;;;;;-4.26;100.00;96772.84;5047075;28;20040;-77
2023/12/03 03:23:58;;;;;;;0.20;0.20;;;;;;;-4.18;100.00;96768.69;5042991;28;20405;-78
2023/12/03 03:26:44;;;;;;;0.30;0.30;;;;;;;-4.14;100.00;96765.59;5046005;28;20061;-77
2023/12/03 03:29:30;;;;;;;0.20;0.20;;;;;;;-4.31;100.00;96779.47;5044932;28;20108;-77
2023/12/03 03:32:16;;;;;;;0.20;0.20;;;;;;;-4.22;100.00;96770.75;5045608;28;20123;-77
2023/12/03 03:35:03;;;;;;;0.25;0.25;;;;;;;-4.07;100.00;96776.28;5034176;28;20059;-78
2023/12/03 03:37:48;;;;;;;0.20;0.20;;;;;;;-4.18;100.00;96772.13;5045261;28;20037;-77
2023/12/03 03:40:34;;;;;;;0.20;0.20;;;;;;;-4.50;100.00;96780.44;5047061;28;20033;-77
2023/12/03 03:43:20;;;;;;;0.20;0.20;;;;;;;-4.49;100.00;96788.13;5045430;28;20045;-77
2023/12/03 03:46:06;;;;;;;0.20;0.20;;;;;;;-4.47;100.00;96785.38;5044417;28;20124;-77
2023/12/03 03:48:52;;;;;;;0.20;0.20;;;;;;;-4.61;100.00;96783.25;5047172;28;20079;-77
2023/12/03 03:51:38;;;;;;;0.30;0.30;;;;;;;-4.70;100.00;96779.72;5048120;28;20052;-78
2023/12/03 03:54:24;;;;;;;0.20;0.20;;;;;;;-4.59;100.00;96781.31;5045344;28;20044;-77
2023/12/03 03:57:10;;;;;;;0.20;0.20;;;;;;;-4.89;100.00;96779.84;5045709;28;20394;-77
2023/12/03 03:59:55;;;;;;;0.20;0.20;;;;;;;-4.80;100.00;96787.59;5045325;28;20048;-77
2023/12/03 04:02:41;;;;;;;0.20;0.20;;;;;;;-4.90;100.00;96779.00;5043208;28;20056;-77
2023/12/03 04:05:27;;;;;;;0.20;0.20;;;;;;;-5.00;100.00;96783.44;5046967;28;20053;-77
2023/12/03 04:08:13;;;;;;;0.30;0.30;;;;;;;-4.85;100.00;96797.66;5043362;28;20048;-77
2023/12/03 04:11:06;;;;;;;0.20;0.20;;;;;;;-4.69;100.00;96799.63;5046241;28;20045;-77
2023/12/03 04:13:52;;;;;;;0.20;0.20;;;;;;;-4.55;100.00;96795.72;5047095;28;20036;-77
2023/12/03 04:16:38;;;;;;;0.20;0.20;;;;;;;-4.44;100.00;96799.91;5045526;28;20044;-77
2023/12/03 04:19:23;;;;;;;0.10;0.10;;;;;;;-4.49;100.00;96808.22;5045636;28;20124;-77
2023/12/03 04:22:09;;;;;;;0.20;0.20;;;;;;;-4.50;100.00;96803.97;5038402;28;20436;-77
2023/12/03 04:24:55;;;;;;;0.20;0.20;;;;;;;-4.45;100.00;96809.53;5044736;28;20049;-77
2023/12/03 04:27:41;;;;;;;0.20;0.20;;;;;;;-4.44;100.00;96800.72;5045046;28;20514;-77
2023/12/03 04:30:27;;;;;;;0.20;0.20;;;;;;;-4.47;100.00;96798.44;5044487;28;20041;-77
2023/12/03 04:33:13;;;;;;;0.20;0.20;;;;;;;-4.36;100.00;96806.03;5046036;28;20148;-77
2023/12/03 04:35:59;;;;;;;0.20;0.20;;;;;;;-4.40;100.00;96796.06;5045975;28;20036;-77
2023/12/03 04:38:45;;;;;;;0.20;0.20;;;;;;;-4.33;100.00;96799.72;5044249;28;20033;-77
2023/12/03 04:41:35;;;;;;;0.22;0.22;;;;;;;-4.28;100.00;96806.16;5043973;28;20052;-77
2023/12/03 04:44:20;;;;;;;0.15;0.15;;;;;;;-4.43;100.00;96797.19;5045134;28;20040;-78
2023/12/03 04:47:06;;;;;;;0.20;0.20;;;;;;;-4.67;100.00;96796.88;5046883;28;20082;-77
2023/12/03 04:49:52;;;;;;;0.20;0.20;;;;;;;-4.54;100.00;96800.78;5047849;28;20037;-77
2023/12/03 04:52:38;;;;;;;0.25;0.25;;;;;;;-4.56;100.00;96814.97;5050059;28;20118;-77
2023/12/03 04:55:24;;;;;;;0.28;0.28;;;;;;;-4.54;100.00;96811.25;5047959;28;20044;-77
2023/12/03 04:58:10;;;;;;;0.20;0.20;;;;;;;-4.41;100.00;96823.97;5047575;28;20043;-77
2023/12/03 05:00:55;;;;;;;0.20;0.20;;;;;;;-4.40;100.00;96820.38;5048073;28;20123;-77
2023/12/03 05:03:41;;;;;;;0.20;0.20;;;;;;;-4.35;100.00;96823.41;5042241;28;20406;-77
2023/12/03 05:06:28;;;;;;;0.20;0.20;;;;;;;-4.40;100.00;96825.63;5039056;28;20157;-77
2023/12/03 05:09:13;;;;;;;0.20;0.20;;;;;;;-4.32;100.00;96825.69;5048763;28;20114;-77
2023/12/03 05:11:59;;;;;;;0.20;0.20;;;;;;;-4.24;100.00;96825.78;5051242;28;20036;-77
2023/12/03 05:14:45;;;;;;;0.20;0.20;;;;;;;-4.40;100.00;96823.00;5050475;28;20154;-77
2023/12/03 05:17:31;;;;;;;0.30;0.30;;;;;;;-4.33;100.00;96828.47;5051002;28;20032;-78
2023/12/03 05:20:17;;;;;;;0.20;0.20;;;;;;;-4.24;100.00;96822.34;5042377;28;20043;-78
2023/12/03 05:23:02;;;;;;;0.20;0.20;;;;;;;-4.37;100.00;96827.09;5051151;28;20055;-78
2023/12/03 05:25:48;;;;;;;0.20;0.20;;;;;;;-4.38;100.00;96815.84;5050197;28;20040;-79
2023/12/03 05:28:34;;;;;;;0.30;0.30;;;;;;;-4.43;100.00;96817.25;5048756;28;20041;-78
2023/12/03 05:31:20;;;;;;;0.20;0.20;;;;;;;-4.48;100.00;96825.53;5050262;28;20040;-79
2023/12/03 05:34:06;;;;;;;0.20;0.20;;;;;;;-4.36;100.00;96828.75;5049761;28;20760;-79
2023/12/03 05:36:52;;;;;;;0.30;0.30;;;;;;;-4.39;100.00;96822.03;5051296;28;20756;-78
2023/12/03 05:39:39;;;;;;;0.15;0.15;;;;;;;-4.37;100.00;96832.31;5047541;28;20044;-78
2023/12/03 05:42:25;;;;;;;0.20;0.20;;;;;;;-4.61;100.00;96840.69;5052802;28;20041;-78
2023/12/03 05:45:10;;;;;;;0.20;0.20;;;;;;;-4.76;100.00;96851.63;5051509;28;20048;-78
2023/12/03 05:47:56;;;;;;;0.20;0.20;;;;;;;-4.48;100.00;96854.25;5052346;28;20037;-78
2023/12/03 05:50:45;;;;;;;0.20;0.20;;;;;;;-4.22;100.00;96847.38;5048178;28;20060;-78
2023/12/03 05:53:32;;;;;;;0.20;0.20;;;;;;;-4.34;100.00;96848.56;5050826;28;20124;-78
2023/12/03 05:56:18;;;;;;;0.20;0.20;;;;;;;-4.29;100.00;96848.91;5050383;28;20068;-77
2023/12/03 05:59:04;;;;;;;0.20;0.20;;;;;;;-4.31;100.00;96847.44;5048158;28;20047;-76
2023/12/03 06:01:50;;;;;;;0.17;0.17;;;;;;;-4.64;100.00;96854.06;5048990;28;20041;-77
2023/12/03 06:04:35;;;;;;;0.30;0.30;;;;;;;-4.88;100.00;96844.94;5049482;28;20045;-77
2023/12/03 06:07:21;;;;;;;0.20;0.20;;;;;;;-4.98;100.00;96838.09;5050607;28;20052;-77
2023/12/03 06:10:08;;;;;;;0.20;0.20;;;;;;;-5.14;100.00;96838.69;5049962;28;20599;-77
2023/12/03 06:12:53;;;;;;;0.20;0.20;;;;;;;-5.48;100.00;96849.63;5040083;28;20041;-77
2023/12/03 06:15:39;;;;;;;0.20;0.20;;;;;;;-5.57;100.00;96847.03;5051180;28;20041;-76
2023/12/03 06:18:26;;;;;;;0.20;0.20;;;;;;;-5.75;100.00;96847.72;5050755;28;20048;-77
2023/12/03 06:21:12;;;;;;;0.20;0.20;;;;;;;-5.75;100.00;96854.72;5035468;28;20123;-77
2023/12/03 06:23:58;;;;;;;0.20;0.20;;;;;;;-5.74;100.00;96856.38;5049487;28;20048;-77
2023/12/03 06:26:44;;;;;;;0.20;0.20;;;;;;;-5.75;100.00;96852.13;5048762;28;20067;-76
2023/12/03 06:29:32;;;;;;;0.20;0.20;;;;;;;-5.71;100.00;96866.50;5050824;28;20558;-76
2023/12/03 06:32:18;;;;;;;0.20;0.20;;;;;;;-5.80;100.00;96868.16;5048917;28;20072;-76
2023/12/03 06:35:04;;;;;;;0.20;0.20;;;;;;;-5.88;100.00;96866.25;5049088;28;20047;-76
2023/12/03 06:37:50;;;;;;;0.20;0.20;;;;;;;-5.85;100.00;96872.13;5049584;28;20068;-77
2023/12/03 06:40:36;;;;;;;0.30;0.30;;;;;;;-5.84;100.00;96882.41;5049075;28;20037;-76
2023/12/03 06:43:22;;;;;;;0.20;0.20;;;;;;;-5.76;100.00;96885.16;5048590;28;20044;-78
2023/12/03 06:46:07;;;;;;;0.20;0.20;;;;;;;-5.66;100.00;96890.41;5048146;28;20811;-79
2023/12/03 06:48:54;;;;;;;0.10;0.10;;;;;;;-5.51;100.00;96888.22;5049170;28;20116;-78
2023/12/03 06:51:39;;;;;;;0.30;0.30;;;;;;;-5.46;100.00;96892.03;5049593;28;20382;-78
2023/12/03 06:54:25;;;;;;;0.20;0.20;;;;;;;-5.34;100.00;96895.31;5040194;28;20102;-78
2023/12/03 06:57:11;;;;;;;0.20;0.20;;;;;;;-5.23;100.00;96889.13;5047731;28;20036;-78
2023/12/03 06:59:57;;;;;;;0.20;0.20;;;;;;;-5.41;100.00;96891.63;5034285;28;20834;-78
2023/12/03 07:02:43;;;;;;;0.30;0.30;;;;;;;-5.35;100.00;96894.50;5046732;28;20135;-78
2023/12/03 07:05:29;;;;;;;0.20;0.20;;;;;;;-5.52;100.00;96894.38;5047696;28;20044;-78
2023/12/03 07:08:15;;;;;;;0.20;0.20;;;;;;;-5.57;100.00;96901.78;5047434;28;20087;-78
2023/12/03 07:11:01;;;;;;;0.20;0.20;;;;;;;-5.30;100.00;96901.06;5048409;28;20040;-78
2023/12/03 07:13:47;;;;;;;0.17;0.17;;;;;;;-5.37;100.00;96906.88;5046917;28;20158;-79
2023/12/03 07:16:33;;;;;;;0.20;0.20;;;;;;;-5.36;100.00;96912.91;5047408;28;20744;-79
2023/12/03 07:19:19;;;;;;;0.30;0.30;;;;;;;-5.52;100.00;96907.44;5050792;28;20045;-79
2023/12/03 07:22:05;;;;;;;0.20;0.20;;;;;;;-5.34;100.00;96903.16;5048531;28;20385;-79
2023/12/03 07:24:53;;;;;;;0.20;0.20;;;;;;;-5.61;100.00;96916.88;5049845;28;20501;-79
2023/12/03 07:27:38;;;;;;;0.20;0.20;;;;;;;-5.61;100.00;96917.69;5047438;28;20496;-79
2023/12/03 07:30:25;;;;;;;0.20;0.20;;;;;;;-5.48;100.00;96921.81;5047262;28;20047;-80
2023/12/03 07:33:11;;;;;;;0.20;0.20;;;;;;;-5.56;100.00;96926.91;5047334;28;20033;-80
2023/12/03 07:35:56;;;;;;;0.22;0.22;;;;;;;-5.65;100.00;96923.34;5051006;28;20052;-79
2023/12/03 07:38:42;;;;;;;0.20;0.20;;;;;;;-5.78;100.00;96917.56;5033028;28;20044;-78
2023/12/03 07:41:28;;;;;;;0.30;0.30;;;;;;;-5.73;100.00;96920.59;5048100;28;20033;-79
2023/12/03 07:44:14;;;;;;;0.20;0.20;;;;;;;-5.71;100.00;96921.28;5047017;28;20043;-78
2023/12/03 07:47:01;;;;;;;0.30;0.30;;;;;;;-5.28;100.00;96920.06;5048491;28;20154;-78
2023/12/03 07:49:46;;;;;;;0.20;0.20;;;;;;;-5.35;100.00;96935.44;5049001;28;20543;-77
2023/12/03 07:52:32;;;;;;;0.20;0.20;;;;;;;-5.23;100.00;96939.53;5047916;28;20041;-77
2023/12/03 07:55:18;;;;;;;0.20;0.20;;;;;;;-5.25;100.00;96951.06;5034421;28;20045;-77
2023/12/03 07:58:04;;;;;;;0.25;0.25;;;;;;;-5.21;100.00;96945.44;5001827;28;20052;-78
2023/12/03 08:00:52;;;;;;;0.20;0.20;;;;;;;-4.76;100.00;96955.25;5033402;28;20116;-77
2023/12/03 08:03:38;;;;;;;0.38;0.30;;;;;;;-4.60;100.00;96960.69;5045166;28;20049;-78
2023/12/03 08:06:24;;;;;;;0.20;0.20;;;;;;;-4.61;100.00;96966.06;5032526;28;20473;-79
2023/12/03 08:09:11;;;;;;;0.20;0.20;;;;;;;-4.55;100.00;96975.97;5047281;28;20045;-79
2023/12/03 08:11:57;;;;;;;0.30;0.30;;;;;;;-4.37;100.00;96974.25;5045552;28;20033;-79
2023/12/03 08:14:43;;;;;;;0.20;0.20;;;;;;;-4.10;100.00;96973.47;5038901;28;20079;-79
2023/12/03 08:17:29;;;;;;;0.20;0.20;;;;;;;-3.77;100.00;96972.06;5045046;28;20040;-78
2023/12/03 08:20:15;;;;;;;0.28;0.28;;;;;;;-3.97;100.00;96960.88;5049091;28;20098;-77
2023/12/03 08:23:01;;;;;;;0.20;0.20;;;;;;;-3.93;100.00;96964.03;5047608;28;20735;-77
2023/12/03 08:25:47;;;;;;;0.30;0.30;;;;;;;-3.95;100.00;96971.19;5050442;28;20260;-79
2023/12/03 08:28:33;;;;;;;0.20;0.20;;;;;;;-4.05;100.00;96978.25;5049759;28;20040;-77
2023/12/03 08:31:21;;;;;;;0.20;0.20;;;;;;;-3.86;100.00;96969.50;5039112;28;20086;-78
2023/12/03 08:34:07;;;;;;;0.20;0.20;;;;;;;-4.33;100.00;96961.72;5052308;28;20044;-79
2023/12/03 08:36:53;;;;;;;0.13;0.13;;;;;;;-4.19;100.00;96963.06;5051003;28;20790;-77
2023/12/03 08:39:39;;;;;;;0.20;0.20;;;;;;;-4.24;100.00;96966.09;5050375;28;20110;-80
2023/12/03 08:42:24;;;;;;;0.20;0.20;;;;;;;-4.37;100.00;96970.81;5041992;28;20123;-77
2023/12/03 08:45:10;;;;;;;0.20;0.20;;;;;;;-4.08;100.00;96973.31;5052476;28;20493;-79
2023/12/03 08:47:56;;;;;;;0.30;0.30;;;;;;;-4.37;100.00;96969.03;5050223;28;20405;-79
2023/12/03 08:50:42;;;;;;;0.20;0.20;;;;;;;-3.98;100.00;96989.78;5049204;28;20044;-78
2023/12/03 08:53:28;;;;;;;0.30;0.30;;;;;;;-3.97;100.00;96986.19;5043151;28;20052;-78
2023/12/03 08:56:14;;;;;;;0.30;0.30;;;;;;;-3.97;100.00;96992.25;5037650;28;20043;-79
2023/12/03 08:59:00;;;;;;;0.20;0.20;;;;;;;-3.98;100.00;96990.59;5047330;28;20041;-79
2023/12/03 09:01:46;;;;;;;0.30;0.30;;;;;;;-4.08;100.00;96986.38;5051265;28;20072;-78
2023/12/03 09:04:31;;;;;;;0.20;0.20;;;;;;;-3.79;100.00;96994.09;5010516;28;20086;-78
2023/12/03 09:07:18;;;;;;;0.20;0.20;;;;;;;-4.04;100.00;96985.16;5028744;28;20138;-77
2023/12/03 09:10:05;;;;;;;0.20;0.20;;;;;;;-3.77;100.00;96990.34;5030647;28;20041;-79
2023/12/03 09:12:52;;;;;;;0.20;0.20;;;;;;;-3.94;100.00;96986.72;5002641;28;20098;-79
2023/12/03 09:15:37;;;;;;;0.20;0.20;;;;;;;-3.49;100.00;96985.13;5029166;28;20524;-78
2023/12/03 09:18:23;;;;;;;0.20;0.20;;;;;;;-3.89;100.00;96977.63;5029209;28;20041;-79
2023/12/03 09:21:11;;;;;;;0.20;0.20;;;;;;;-3.61;100.00;96987.09;5030909;28;20045;-79
2023/12/03 09:23:57;;;;;;;0.20;0.20;;;;;;;-3.41;100.00;96993.88;5030886;28;20033;-78
2023/12/03 09:26:45;;;;;;;0.30;0.30;;;;;;;-3.71;100.00;96994.19;5030339;28;20044;-80
2023/12/03 09:29:31;;;;;;;0.25;0.25;;;;;;;-3.84;100.00;96986.69;5029307;28;20045;-80
2023/12/03 09:32:17;;;;;;;0.20;0.20;;;;;;;-3.61;100.00;97000.19;5030299;28;20037;-80
2023/12/03 09:35:03;;;;;;;0.20;0.20;;;;;;;-3.39;100.00;96996.31;5028657;28;20052;-80
2023/12/03 09:37:49;;;;;;;0.20;0.20;;;;;;;-3.69;100.00;96995.69;5029129;28;20107;-79
2023/12/03 09:40:35;;;;;;;0.20;0.20;;;;;;;-3.25;100.00;96992.38;5031473;28;20493;-78
2023/12/03 09:43:24;;;;;;;0.20;0.20;;;;;;;-3.30;100.00;96998.03;5029632;28;20188;-77
2023/12/03 09:46:14;;;;;;;0.30;0.30;;;;;;;-3.22;100.00;97000.75;5029192;28;20041;-80
2023/12/03 09:49:03;;;;;;;0.25;0.25;;;;;;;-3.19;100.00;97000.47;5016492;28;20056;-80
2023/12/03 09:51:49;;;;;;;0.30;0.30;;;;;;;-2.54;100.00;97002.78;5029666;28;20048;-80
2023/12/03 09:54:37;;;;;;;0.25;0.25;;;;;;;-2.48;100.00;96996.94;5029065;28;20041;-80
2023/12/03 09:57:25;;;;;;;0.20;0.20;;;;;;;-2.59;100.00;96997.97;5028407;28;20797;-80
2023/12/03 10:00:12;;;;;;;0.20;0.20;;;;;;;-2.98;100.00;96989.66;5032145;28;20052;-79
2023/12/03 10:02:57;;;;;;;0.30;0.30;;;;;;;-2.97;100.00;96985.25;5039532;28;20048;-79
2023/12/03 10:05:45;;;;;;;0.30;0.30;;;;;;;-2.70;100.00;96981.69;5039946;28;20044;-78
2023/12/03 10:08:34;;;;;;;0.20;0.20;;;;;;;-2.92;100.00;96980.38;5033453;28;20513;-79
2023/12/03 10:11:28;;;;;;;0.20;0.20;;;;;;;-2.81;100.00;96990.59;5038856;28;20057;-79
2023/12/03 10:14:15;;;;;;;0.20;0.20;;;;;;;-2.66;100.00;96991.72;5049468;28;20060;-79
2023/12/03 10:17:01;;;;;;;0.30;0.30;;;;;;;-2.93;100.00;96994.47;5048602;28;20044;-79
2023/12/03 10:19:47;;;;;;;0.20;0.20;;;;;;;-2.56;100.00;96995.06;5049471;28;20394;-79
2023/12/03 10:22:34;;;;;;;0.30;0.30;;;;;;;-2.46;100.00;96999.38;5050086;28;20102;-79
2023/12/03 10:25:36;;;;;;;0.20;0.20;;;;;;;-2.31;100.00;96996.03;5049773;28;20071;-78
2023/12/03 10:28:23;;;;;;;0.38;0.35;;;;;;;-2.26;100.00;96985.06;5046616;28;20079;-79
2023/12/03 10:31:13;;;;;;;0.20;0.20;;;;;;;-2.39;100.00;96995.19;5048114;28;20579;-79
2023/12/03 10:33:59;;;;;;;0.20;0.20;;;;;;;-2.56;100.00;96991.63;5045629;28;20492;-79
2023/12/03 10:36:45;;;;;;;0.30;0.30;;;;;;;-2.66;100.00;97004.00;5049076;28;20038;-79
2023/12/03 10:39:30;;;;;;;0.20;0.20;;;;;;;-2.32;100.00;96998.81;5047604;28;20044;-79
2023/12/03 10:42:16;;;;;;;0.20;0.20;;;;;;;-2.09;100.00;96997.31;5047921;28;20045;-79
2023/12/03 10:45:13;;;;;;;0.30;0.30;;;;;;;-1.79;100.00;96992.50;5047177;28;20115;-79
2023/12/03 10:48:01;;;;;;;0.30;0.30;;;;;;;-1.85;100.00;96990.53;5047622;28;20599;-78
2023/12/03 10:50:48;;;;;;;0.30;0.30;;;;;;;-1.51;100.00;96978.19;5028974;28;20048;-79
2023/12/03 10:53:36;;;;;;;0.30;0.30;;;;;;;-1.71;100.00;96984.69;5047352;28;20055;-79
2023/12/03 10:56:22;;;;;;;0.20;0.20;;;;;;;-1.62;100.00;96975.88;5048789;28;20045;-79
2023/12/03 10:59:10;;;;;;;0.20;0.20;;;;;;;-1.61;100.00;96982.75;5049504;28;20110;-79
2023/12/03 11:01:58;;;;;;;0.20;0.20;;;;;;;-1.31;100.00;96981.34;5047078;28;20571;-79
2023/12/03 11:04:56;;;;;;;0.30;0.30;;;;;;;-1.13;100.00;96975.94;5045892;28;20048;-78
2023/12/03 11:07:42;;;;;;;0.20;0.20;;;;;;;-1.30;100.00;96979.53;5048448;28;20850;-79
2023/12/03 11:10:29;;;;;;;0.32;0.30;;;;;;;-0.53;100.00;96973.00;5049491;28;20048;-79
2023/12/03 11:13:16;;;;;;;0.30;0.30;;;;;;;1.67;100.00;96966.50;5048587;28;20561;-79
2023/12/03 11:16:06;;;;;;;0.40;0.40;;;;;;;1.92;100.00;96964.41;5048107;28;20094;-79
2023/12/03 11:18:58;;;;;;;0.30;0.30;;;;;;;2.38;100.00;96959.75;5047707;28;20042;-79
2023/12/03 11:22:07;;;;;;;0.30;0.30;;;;;;;2.26;100.00;96958.59;5046442;28;20045;-79
2023/12/03 11:25:00;;;;;;;0.30;0.30;;;;;;;4.78;100.00;96942.00;5020042;28;20686;-76
2023/12/03 11:27:46;;;;;;;0.30;0.30;;;;;;;5.78;88.57;96938.41;5047621;28;20051;-77
2023/12/03 11:30:42;;;;;;;0.35;0.30;;;;;;;6.08;81.81;96930.81;5048642;28;20039;-77
2023/12/03 11:33:28;;;;;;;0.28;0.28;;;;;;;7.47;73.35;96925.59;5049181;28;20063;-77
2023/12/03 11:36:14;;;;;;;0.35;0.30;;;;;;;6.74;63.61;96937.72;5048673;28;20043;-77
2023/12/03 11:39:01;;;;;;;0.40;0.40;;;;;;;7.98;69.01;96929.81;5046748;28;20040;-79
2023/12/03 11:41:58;;;;;;;0.50;0.40;;;;;;;10.18;52.43;96913.13;5047128;28;20083;-79
2023/12/03 11:44:45;;;;;;;0.52;0.40;;;;;;;10.96;46.00;96919.81;5048348;28;20050;-79
2023/12/03 11:47:31;;;;;;;0.22;0.22;;;;;;;9.37;46.27;96921.94;5047774;28;20266;-78
2023/12/03 11:50:18;;;;;;;0.30;0.30;;;;;;;9.45;48.73;96924.28;5046492;28;20072;-79
2023/12/03 11:53:05;;;;;;;0.40;0.40;;;;;;;9.54;55.94;96911.41;5047634;28;20056;-78
2023/12/03 11:55:52;;;;;;;0.40;0.40;;;;;;;8.97;49.05;96916.38;5046998;28;20725;-79
2023/12/03 11:58:38;;;;;;;0.30;0.30;;;;;;;8.31;49.28;96923.31;5049531;28;20037;-78
2023/12/03 12:01:24;;;;;;;0.40;0.40;;;;;;;7.57;52.46;96927.75;5050961;28;20037;-78
2023/12/03 12:04:22;;;;;;;0.35;0.35;;;;;;;7.96;58.12;96920.44;5052248;28;20600;-78
2023/12/03 12:07:16;;;;;;;0.40;0.40;;;;;;;8.24;50.55;96917.25;5052273;28;20055;-78
2023/12/03 12:10:04;;;;;;;0.60;0.43;;;;;;;8.56;49.89;96918.75;5052035;28;20118;-78
2023/12/03 12:12:50;;;;;;;0.30;0.30;;;;;;;8.26;49.76;96916.00;5051455;28;20059;-78
2023/12/03 12:15:36;;;;;;;0.40;0.40;;;;;;;8.12;51.48;96909.19;5051507;28;20099;-78
2023/12/03 12:18:23;;;;;;;0.30;0.30;;;;;;;7.02;56.39;96910.78;5052325;28;20040;-78
2023/12/03 12:21:10;;;;;;;0.30;0.30;;;;;;;4.98;75.47;96913.66;5052661;28;20041;-78
2023/12/03 12:23:56;;;;;;;0.43;0.40;;;;;;;8.05;65.11;96903.94;5037441;28;20805;-78
2023/12/03 12:26:42;;;;;;;0.60;0.40;;;;;;;7.94;55.27;96904.66;5049975;28;20088;-78
2023/12/03 12:29:28;;;;;;;0.30;0.30;;;;;;;8.20;50.86;96906.22;5051471;28;20443;-78
2023/12/03 12:32:15;;;;;;;0.40;0.40;;;;;;;8.04;64.64;96902.31;5051238;28;20044;-78
2023/12/03 12:35:02;;;;;;;0.30;0.30;;;;;;;6.60;62.61;96902.41;5050259;28;20048;-77
2023/12/03 12:38:00;;;;;;;0.30;0.30;;;;;;;7.65;57.34;96902.69;5050067;28;20086;-77
2023/12/03 12:40:54;;;;;;;0.20;0.20;;;;;;;6.93;62.74;96888.94;5050700;28;20048;-78
2023/12/03 12:43:54;;;;;;;0.20;0.20;;;;;;;4.13;83.50;96891.22;5037541;28;20049;-77
2023/12/03 12:46:58;;;;;;;0.20;0.20;;;;;;;2.35;100.00;96896.75;5050713;28;20032;-77
2023/12/03 12:49:55;;;;;;;0.20;0.20;;;;;;;1.67;100.00;96892.63;5049810;28;20029;-78
2023/12/03 12:52:52;;;;;;;0.20;0.20;;;;;;;0.89;100.00;96890.41;5049098;28;21532;-77
2023/12/03 12:55:39;;;;;;;0.20;0.20;;;;;;;0.31;100.00;96892.59;5050193;28;20063;-77
2023/12/03 12:58:25;;;;;;;0.20;0.20;;;;;;;-0.06;100.00;96890.69;5038646;28;20044;-77